Jump to content

  •  

FEDEX FLIGHT FX247 FLOWN ON 06-17-2017 BY CAPTAIN TYLER HANUS

Pilot StatsCaptain Tyler Hanus (LDP525) • 262.7 total hours • 63 total flights [View Logbook]
FLIGHT DETAILS
StatusReceived and approved on 2017-06-17 at 09:06:26
Origin AirportCharles-de-Gaulle (LFPG) • Paris, France (392 feet MSL)
Filed Flight PlanFLIGHT PLANNER OFFLINE
Destination AirportBaiyun (ZGGG) • Guangzhou, China (50 feet MSL)
Alternate AirportBaoan (ZGSZ) • Shenzhen, China (13 feet MSL)
AirlineFedEx
AircraftBoeing 777-200 Freighter (77F / B777-200F)
FS Aircraft UsedPMDG 777-FS2 FedEx Express
Cruising AltitudeFL330
Distance Flown5,105 nautical miles
Cargo Onboard72,300 lbs (53.27% full)
DEPARTURE DETAILS
Time Out03:15:26
Taxi Data663,179 lbs total with 279,079 lbs of fuel onboard
Takeoff Data03:26:16 (11 minutes after leaving gate/ramp) • 661,522 lbs total • 6° pitch at 185 knots
Departure METARLFPG 162330Z 36004KT 340V140 CAVOK 15/10 Q1028 NOSIG
ARRIVAL DETAILS
Landing Data20:12:44 • 471,353 lbs total • 4° pitch doing 139 knots at a rate of -439.07 feet/minute with 86,551 lbs of fuel onboard
Time In20:19:21 (7 minutes after landing)
Ramp Weight470,651 lbs total
Total Fuel Used192,528 lbs
Total Block Time11:48:24 (11.8 hours) while 17 minutes were spent on the ground
Arrival METARZGGG 171300Z 02003MPS 9999 BKN033 27/22 Q1004 NOSIG
MISCELLANEOUS DETAILS
LiveDISPATCH Version4.8.3.1
FS Version
FSUIPC Version4.96
OS VersionWindows 7 32-bit
Screen Resolution1360 x 768
Pilot's CommentsNo Comments Reported
FLIGHT MAP